Weather reports worldwide

Advertisment
Rodkallen, Sweden (2188): temperature & dewpoint: 25.10.2020 04:00:00 - 31.10.2020 04:00:00 (CET)Rodkallen, Sweden (2188): wind speed & gusts: 25.10.2020 04:00:00 - 31.10.2020 04:00:00 (CET)Rodkallen, Sweden (2188): wind direction: 25.10.2020 04:00:00 - 31.10.2020 04:00:00 (CET)Rodkallen, Sweden (2188): visibility: 25.10.2020 04:00:00 - 31.10.2020 04:00:00 (CET)Rodkallen, Sweden (2188): precipitation: 25.10.2020 04:00:00 - 31.10.2020 04:00:00 (CET)
Date & Time tt [°C] td [°C] ff [km/h] ff [kn] fx [km/h] fx [kn] dd vv [km] rr [mm]
31.10.2020 04:00:00 3,4 -0,9 22 12 25 14 SE 50 0,0
31.10.2020 03:00:00 3,5 -1,5 17 9 22 12 SE 50 0,0
31.10.2020 02:00:00 3,6 -2,0 13 7 21 12 SSE 50 0,0
31.10.2020 01:00:00 3,2 -1,7 13 7 21 11 SE 50 0,0
31.10.2020 00:00:00 2,6 -1,2 13 7 17 9 ESE 50 0,0
30.10.2020 23:00:00 2,5 -0,9 10 5 15 8 E 50 0,0
30.10.2020 22:00:00 0,8 -0,8 10 5 14 7 N 50 0,0
30.10.2020 21:00:00 0,2 -1,6 9 5 20 11 N 50 0,0
30.10.2020 20:00:00 0,6 -1,5 15 8 20 11 N 50 0,0
30.10.2020 19:00:00 0,2 -2,5 10 5 17 9 NNW 50 0,0
30.10.2020 18:00:00 0,6 -2,6 10 5 18 10 N 50 0,0
30.10.2020 17:00:00 0,7 -3,2 13 7 17 9 NNW 50 0,0
30.10.2020 16:00:00 0,8 -2,8 13 7 21 12 NNW 50 0,0
30.10.2020 15:00:00 1,6 -2,2 17 9 27 15 N 50 0,0
30.10.2020 14:00:00 1,6 -2,5 19 10 27 15 NNW 50 0,0
30.10.2020 13:00:00 1,6 -2,7 16 9 25 14 NNW 50 0,0
30.10.2020 12:00:00 1,8 -2,5 19 10 33 18 N 50 0,0
30.10.2020 11:00:00 1,8 -2,5 22 12 34 18 N 47 0,0
30.10.2020 10:00:00 1,6 -1,9 24 13 35 19 N 50 0,0
30.10.2020 09:00:00 1,9 -2,6 26 14 43 23 N 50 0,0
30.10.2020 08:00:00 2,4 -2,1 32 17 42 23 N 50 0,0
30.10.2020 07:00:00 2,7 -1,7 30 16 39 21 N 50 0,0
30.10.2020 06:00:00 3,0 -0,8 33 18 40 22 N 50 0,0
30.10.2020 05:00:00 2,1 0,5 25 14 34 18 NNW 50 0,0
30.10.2020 04:00:00 1,9 0,0 22 12 34 19 NNW 50 0,0
30.10.2020 03:00:00 2,0 0,1 19 10 31 17 NNW 50 0,0
30.10.2020 02:00:00 2,3 0,7 19 10 27 15 NW 50 0,0
30.10.2020 01:00:00 2,2 0,9 19 11 28 15 NW 50 0,0
30.10.2020 00:00:00 2,8 1,3 18 10 25 14 NW 50 0,0
29.10.2020 23:00:00 3,6 1,5 18 10 26 14 WNW 50 0,0
29.10.2020 22:00:00 5,0 3,6 16 8 23 13 WNW 50 0,0
29.10.2020 21:00:00 6,2 4,7 21 11 23 12 W 50 0,0
29.10.2020 20:00:00 6,7 5,3 19 10 22 12 WSW 37 0,0
29.10.2020 19:00:00 6,8 5,4 17 9 24 13 SW 18 0,1
29.10.2020 18:00:00 7,1 5,4 22 12 29 16 SW 34 0,0
29.10.2020 17:00:00 7,3 5,4 25 13 31 17 SW 35 0,0
29.10.2020 16:00:00 7,4 5,5 26 14 32 17 SSW 40 0,2
29.10.2020 15:00:00 7,4 5,7 26 14 33 18 SSW 8 0,3
29.10.2020 14:00:00 7,5 5,3 30 16 37 20 SSW 33 0,0
29.10.2020 13:00:00 7,4 5,9 29 15 39 21 SSW 25 0,0
29.10.2020 12:00:00 7,5 6,0 31 17 40 21 SSW 20 0,0
29.10.2020 11:00:00 7,6 5,7 31 17 41 22 SSW 25 0,0
29.10.2020 10:00:00 7,6 5,7 34 19 42 23 SSW 24 0,0
29.10.2020 09:00:00 7,6 5,7 34 18 40 22 SSW 23 0,0
29.10.2020 08:00:00 7,4 5,7 31 17 39 21 SSW 22 0,0
29.10.2020 07:00:00 7,3 5,8 30 16 38 21 SSW 23 0,0
29.10.2020 06:00:00 7,3 5,8 28 15 40 21 SSW 26 0,0
29.10.2020 05:00:00 7,3 5,9 34 18 48 26 SSW 22 0,0
29.10.2020 04:00:00 7,3 6,1 39 21 48 26 S 20 0,0
29.10.2020 03:00:00 7,6 6,4 36 19 44 24 SSW 23 0,0
29.10.2020 02:00:00 7,6 6,5 34 19 48 26 S 20 0,0
29.10.2020 01:00:00 7,6 6,7 37 20 43 23 S 26 0,4
29.10.2020 00:00:00 7,6 7,0 31 17 43 23 S 4,6 1,6
28.10.2020 23:00:00 7,6 6,9 36 20 49 27 SSE 7 1,5
28.10.2020 22:00:00 7,5 6,8 28 15 34 18 SSE 8 2,0
28.10.2020 21:00:00 7,4 6,2 27 15 37 20 SSE 16 0,0
28.10.2020 20:00:00 7,4 6,2 28 15 43 23 S 17 0,0
28.10.2020 19:00:00 7,7 5,7 30 16 43 23 S 32 0,0
28.10.2020 18:00:00 7,9 5,7 32 17 41 22 S 34 0,0
28.10.2020 17:00:00 7,7 6,3 29 15 40 22 S 12 0,0
28.10.2020 16:00:00 7,6 6,6 27 15 32 18 S 18 0,0
28.10.2020 15:00:00 7,5 6,8 25 13 31 17 S 14 0,0
28.10.2020 14:00:00 7,5 6,6 22 12 31 17 S 15 0,0
28.10.2020 13:00:00 7,5 6,1 24 13 29 16 S 27 0,0
28.10.2020 12:00:00 7,6 6,1 25 13 35 19 S 24 0,0
28.10.2020 11:00:00 7,4 6,3 25 13 29 16 S 21 0,0
28.10.2020 10:00:00 7,3 6,4 19 11 25 14 SSW 16 0,0
28.10.2020 09:00:00 7,4 6,2 21 11 30 16 SSW 37 0,0
28.10.2020 08:00:00 7,3 6,6 18 10 26 14 SSW 15 0,0
28.10.2020 07:00:00 7,4 6,7 23 12 28 15 SSW 19 0,0
28.10.2020 06:00:00 7,3 6,6 20 11 29 15 SSW 17 0,0
28.10.2020 05:00:00 7,3 6,6 22 12 26 14 S 14 0,0
28.10.2020 04:00:00 7,3 6,5 21 12 26 14 S 15 0,0
28.10.2020 03:00:00 7,3 6,7 18 10 22 12 S 14 0,0
28.10.2020 02:00:00 7,0 5,8 24 13 29 16 S 29 0,0
28.10.2020 01:00:00 7,1 6,0 21 12 29 16 S 29 0,0
28.10.2020 00:00:00 7,2 6,0 26 14 36 19 SSW 44 0,0
27.10.2020 23:00:00 7,3 6,2 28 15 34 19 S 32 0,0
27.10.2020 22:00:00 7,7 5,4 27 15 35 19 SSW 50 0,0
27.10.2020 21:00:00 7,4 6,2 21 12 29 16 SSW 50 0,0
27.10.2020 20:00:00 6,7 5,3 15 8 29 16 SSW 50 0,0
27.10.2020 19:00:00 6,4 4,6 27 14 33 18 SSW 50 0,0
27.10.2020 18:00:00 6,2 4,4 29 16 40 22 SW 49 0,0
27.10.2020 17:00:00 5,9 4,4 29 16 44 24 SW 47 0,0
27.10.2020 16:00:00 5,1 4,5 41 22 51 28 WSW 31 0,0
27.10.2020 15:00:00 6,8 6,1 39 21 59 32 SSW 9 0,0
27.10.2020 14:00:00 8,5 7,7 47 26 67 36 SSE 13 1,0
27.10.2020 13:00:00 8,4 8,0 44 24 55 30 SE 3,1 3,2
27.10.2020 12:00:00 8,2 7,9 33 18 41 22 SE 7 3,6
27.10.2020 11:00:00 6,9 6,6 22 12 27 15 NE 3,8 4,3
27.10.2020 10:00:00 6,6 6,3 18 10 21 12 NE 1,6 2,5
27.10.2020 09:00:00 6,7 6,4 13 7 15 8 NE 6 0,6
27.10.2020 08:00:00 6,9 6,6 6 3 14 8 ESE 10 1,4
27.10.2020 07:00:00 7,1 6,8 13 7 19 11 SE 8 1,4
27.10.2020 06:00:00 7,1 6,8 9 5 18 10 SE 0,7 0,2
27.10.2020 05:00:00 6,8 6,2 10 5 14 7 S 29 0,0
27.10.2020 04:00:00 6,5 5,8 10 6 20 11 SSE 30 0,0
27.10.2020 03:00:00 6,3 5,6 12 7 23 13 S 29 0,0
27.10.2020 02:00:00 6,2 5,5 18 10 23 12 SSW 39 0,0
27.10.2020 01:00:00 6,8 6,1 19 10 26 14 S 27 0,0
27.10.2020 00:00:00 6,8 5,9 17 9 27 15 SSW 33 0,0
26.10.2020 23:00:00 7,0 6,1 23 13 29 16 S 25 0,0
26.10.2020 22:00:00 7,0 6,2 24 13 29 16 S 22 0,0
26.10.2020 21:00:00 7,3 6,2 22 12 32 17 S 42 0,0
26.10.2020 20:00:00 7,4 6,0 21 11 24 13 SSW 46 0,0
26.10.2020 19:00:00 6,9 5,8 15 8 30 16 SSW 50 0,0
26.10.2020 18:00:00 7,0 5,8 26 14 35 19 SSW 50 0,0
26.10.2020 17:00:00 6,8 6,5 24 13 36 19 SW 23 0,0
26.10.2020 16:00:00 6,7 6,4 12 7 19 10 SSW 2,6 0,0
26.10.2020 15:00:00 6,2 5,9 4 2 10 5 SSW 23 0,0
26.10.2020 14:00:00 6,4 6,1 9 5 13 7 WSW 32 0,0
26.10.2020 13:00:00 6,5 6,2 9 5 13 7 SW 33 0,0
26.10.2020 12:00:00 6,5 6,2 8 4 11 6 WSW 9 0,0
26.10.2020 11:00:00 6,7 6,4 10 5 13 7 WSW 0,7 0,0
26.10.2020 10:00:00 7,0 6,7 9 5 13 7 SW 0,2 0,0
26.10.2020 09:00:00 7,4 7,1 11 6 19 10 SSW 0,3 0,0
26.10.2020 08:00:00 7,6 7,3 16 8 23 12 SSW 6 0,0
26.10.2020 07:00:00 7,7 7,4 21 12 29 16 S 6 0,0
26.10.2020 06:00:00 7,8 7,5 26 14 37 20 S 2,1 0,0
26.10.2020 05:00:00 7,9 7,5 34 19 45 24 S 9 0,0
26.10.2020 04:00:00 7,8 7,2 37 20 53 29 S 12 0,0
26.10.2020 03:00:00 7,7 6,9 44 24 59 32 S 16 1,0
26.10.2020 02:00:00 7,3 6,6 44 24 64 34 SSE 7 2,2
26.10.2020 01:00:00 6,9 6,2 49 26 66 35 SSE 6 0,8
26.10.2020 00:00:00 6,3 5,6 51 27 65 35 SE 3,2 1,5
25.10.2020 23:00:00 5,3 4,7 50 27 64 35 SE 1,4 2,8
25.10.2020 22:00:00 4,9 4,2 49 26 63 34 SE 1,3 1,4
25.10.2020 21:00:00 4,7 3,5 49 26 64 35 ESE 3,7 0,1
25.10.2020 20:00:00 4,5 2,8 46 25 61 33 ESE 8 1,5
25.10.2020 19:00:00 4,6 2,6 45 24 55 30 SE 7 2,4
25.10.2020 18:00:00 4,9 2,1 41 22 50 27 SE 11 0,2
25.10.2020 17:00:00 5,5 2,1 36 19 42 23 SE 50 0,0
25.10.2020 16:00:00 5,4 1,1 30 16 36 19 SE 50 0,0
25.10.2020 15:00:00 5,0 0,9 19 11 25 13 SE 50 0,0
25.10.2020 14:00:00 5,0 2,2 15 8 19 10 SE 50 0,0
25.10.2020 13:00:00 4,8 1,6 11 6 18 10 SSE 50 0,0
25.10.2020 12:00:00 3,6 2,3 12 7 15 8 NE 50 0,0
25.10.2020 11:00:00 2,8 1,5 11 6 13 7 NNE 50 0,0
25.10.2020 10:00:00 1,6 -0,3 9 5 10 6 N 48 0,0
25.10.2020 09:00:00 1,6 -0,8 4 2 7 4 N 48 0,0
25.10.2020 08:00:00 0,3 -1,8 6 3 10 5 N 50 0,0
25.10.2020 07:00:00 -0,6 -3,0 7 4 15 8 N 50 0,0
25.10.2020 06:00:00 -0,4 -2,8 9 5 12 6 NNW 50 0,0
25.10.2020 05:00:00 0,2 -2,7 8 4 16 9 NNW 50 0,0
25.10.2020 04:00:00 0,2 -3,3 11 6 18 10 NW 50 0,0

tt = temperature
td = dewpoint
ff = wind speed
fx = gusts
dd = wind direction
vv = visibility
rr = precipitation

Next stations